createdAt,value
2024-02-22T00:00:36.787Z,100.00
2024-02-22T00:03:05.198Z,100.00
2024-02-22T00:05:31.778Z,100.00
2024-02-22T00:07:58.396Z,100.00
2024-02-22T00:10:30.024Z,100.00
2024-02-22T00:12:57.791Z,100.00
2024-02-22T00:15:27.397Z,100.00
2024-02-22T00:17:54.082Z,100.00
2024-02-22T00:20:21.527Z,100.00
2024-02-22T00:22:48.311Z,100.00
2024-02-22T00:25:16.382Z,100.00
2024-02-22T00:27:44.062Z,100.00
2024-02-22T00:30:11.624Z,100.00
2024-02-22T00:32:38.206Z,100.00
2024-02-22T00:35:06.777Z,100.00
2024-02-22T00:37:34.168Z,100.00
2024-02-22T00:40:00.699Z,100.00
2024-02-22T00:42:27.207Z,100.00
2024-02-22T00:44:53.668Z,100.00
2024-02-22T00:47:20.172Z,100.00
2024-02-22T00:49:46.912Z,100.00
2024-02-22T00:52:13.608Z,100.00
2024-02-22T00:54:40.070Z,100.00
2024-02-22T00:57:06.670Z,100.00
2024-02-22T00:59:34.796Z,100.00
2024-02-22T01:02:01.549Z,100.00
2024-02-22T01:04:28.468Z,100.00
2024-02-22T01:06:57.112Z,100.00
2024-02-22T01:09:23.993Z,100.00
2024-02-22T01:11:50.920Z,100.00
2024-02-22T01:14:18.060Z,100.00
2024-02-22T01:16:44.582Z,100.00
2024-02-22T01:19:11.162Z,100.00
2024-02-22T01:21:37.710Z,100.00
2024-02-22T01:24:04.879Z,100.00
2024-02-22T01:26:31.366Z,100.00
2024-02-22T01:28:58.164Z,100.00
2024-02-22T01:31:24.715Z,100.00
2024-02-22T01:33:51.371Z,100.00
2024-02-22T01:36:18.885Z,100.00
2024-02-22T01:38:45.399Z,100.00
2024-02-22T01:41:11.879Z,100.00
2024-02-22T01:43:38.461Z,100.00
2024-02-22T01:46:05.598Z,100.00
2024-02-22T01:48:33.338Z,100.00
2024-02-22T01:51:01.413Z,100.00
2024-02-22T01:53:29.390Z,100.00
2024-02-22T01:56:01.793Z,100.00
2024-02-22T01:58:36.254Z,100.00
2024-02-22T02:01:05.063Z,100.00
2024-02-22T02:03:32.836Z,100.00
2024-02-22T02:06:00.711Z,100.00
2024-02-22T02:08:27.436Z,100.00
2024-02-22T02:10:54.000Z,100.00
2024-02-22T02:13:20.574Z,100.00
2024-02-22T02:15:47.052Z,100.00
2024-02-22T02:18:13.743Z,100.00
2024-02-22T02:20:56.037Z,100.00
2024-02-22T02:23:55.600Z,100.00
2024-02-22T02:26:22.429Z,100.00
2024-02-22T02:28:51.350Z,100.00
2024-02-22T02:31:17.985Z,100.00
2024-02-22T02:33:44.526Z,100.00
2024-02-22T02:36:11.078Z,100.00
2024-02-22T02:38:37.596Z,100.00
2024-02-22T02:41:04.351Z,100.00
2024-02-22T02:43:30.933Z,100.00
2024-02-22T02:45:57.426Z,100.00
2024-02-22T02:48:23.971Z,100.00
2024-02-22T02:50:50.501Z,100.00
2024-02-22T02:53:17.167Z,100.00
2024-02-22T02:55:43.699Z,100.00
2024-02-22T02:58:10.271Z,100.00
2024-02-22T03:00:36.967Z,100.00
2024-02-22T03:03:04.001Z,100.00
2024-02-22T03:05:30.881Z,100.00
2024-02-22T03:07:57.629Z,100.00
2024-02-22T03:10:24.951Z,100.00
2024-02-22T03:12:52.318Z,100.00
2024-02-22T03:15:18.911Z,100.00
2024-02-22T03:17:45.453Z,100.00
2024-02-22T03:20:12.324Z,100.00
2024-02-22T03:22:40.751Z,100.00
2024-02-22T03:25:09.508Z,100.00
2024-02-22T03:27:36.598Z,100.00
2024-02-22T03:30:06.606Z,100.00
2024-02-22T03:32:33.162Z,100.00
2024-02-22T03:34:59.879Z,100.00
2024-02-22T03:37:26.619Z,100.00
2024-02-22T03:39:53.102Z,100.00
2024-02-22T03:42:20.271Z,100.00
2024-02-22T03:44:46.805Z,100.00
2024-02-22T03:47:13.500Z,100.00
2024-02-22T03:49:40.334Z,100.00
2024-02-22T03:52:08.083Z,100.00
2024-02-22T03:54:37.362Z,100.00
2024-02-22T03:57:04.561Z,100.00
2024-02-22T03:59:31.447Z,100.00
2024-02-22T04:01:58.272Z,100.00
2024-02-22T04:04:25.021Z,100.00
2024-02-22T04:06:51.628Z,100.00
2024-02-22T04:09:18.205Z,100.00
2024-02-22T04:11:44.854Z,100.00
2024-02-22T04:14:11.506Z,100.00
2024-02-22T04:16:38.107Z,100.00
2024-02-22T04:19:04.939Z,100.00
2024-02-22T04:21:31.459Z,100.00
2024-02-22T04:23:57.944Z,100.00
2024-02-22T04:26:24.412Z,100.00
2024-02-22T04:28:50.949Z,100.00
2024-02-22T04:31:17.441Z,100.00
2024-02-22T04:33:44.190Z,100.00
2024-02-22T04:36:10.687Z,100.00
2024-02-22T04:38:37.296Z,100.00
2024-02-22T04:41:04.302Z,100.00
2024-02-22T04:43:30.930Z,100.00
2024-02-22T04:45:57.392Z,100.00
2024-02-22T04:48:23.920Z,100.00
2024-02-22T04:50:50.448Z,100.00
2024-02-22T04:53:17.239Z,100.00
2024-02-22T04:55:43.789Z,100.00
2024-02-22T04:58:10.283Z,100.00
2024-02-22T05:00:36.908Z,100.00
2024-02-22T05:03:04.678Z,100.00
2024-02-22T05:05:31.346Z,100.00
2024-02-22T05:07:58.280Z,100.00
2024-02-22T05:10:24.882Z,100.00
2024-02-22T05:12:51.481Z,100.00
2024-02-22T05:15:17.994Z,100.00
2024-02-22T05:17:44.453Z,100.00
2024-02-22T05:20:11.368Z,100.00
2024-02-22T05:22:37.927Z,100.00
2024-02-22T05:25:04.722Z,100.00
2024-02-22T05:27:31.198Z,100.00
2024-02-22T05:29:57.670Z,100.00
2024-02-22T05:32:24.747Z,100.00
2024-02-22T05:34:51.605Z,100.00
2024-02-22T05:37:18.297Z,100.00
2024-02-22T05:39:44.768Z,100.00
2024-02-22T05:42:11.278Z,100.00
2024-02-22T05:44:37.933Z,100.00
2024-02-22T05:47:04.720Z,100.00
2024-02-22T05:49:31.478Z,100.00
2024-02-22T05:51:58.093Z,100.00
2024-02-22T05:54:24.860Z,100.00
2024-02-22T05:56:51.517Z,100.00
2024-02-22T05:59:18.183Z,100.00
2024-02-22T06:01:44.893Z,100.00
2024-02-22T06:04:12.269Z,100.00
2024-02-22T06:06:38.944Z,100.00
2024-02-22T06:09:09.143Z,100.00
2024-02-22T06:11:36.503Z,100.00
2024-02-22T06:14:03.487Z,100.00
2024-02-22T06:16:30.003Z,100.00
2024-02-22T06:18:56.517Z,100.00
2024-02-22T06:21:23.032Z,100.00
2024-02-22T06:23:50.451Z,100.00
2024-02-22T06:26:19.766Z,100.00
2024-02-22T06:28:46.298Z,100.00
2024-02-22T06:31:12.762Z,100.00
2024-02-22T06:33:40.522Z,100.00
2024-02-22T06:36:07.803Z,100.00
2024-02-22T06:38:34.377Z,100.00
2024-02-22T06:41:01.270Z,100.00
2024-02-22T06:43:27.748Z,100.00
2024-02-22T06:45:54.226Z,100.00
2024-02-22T06:48:20.730Z,100.00
2024-02-22T06:50:47.272Z,100.00
2024-02-22T06:53:13.738Z,100.00
2024-02-22T06:55:40.560Z,100.00
2024-02-22T06:58:07.280Z,100.00
2024-02-22T07:00:34.315Z,100.00
2024-02-22T07:03:04.593Z,100.00
2024-02-22T07:05:32.489Z,100.00
2024-02-22T07:07:59.026Z,100.00
2024-02-22T07:10:25.594Z,100.00
2024-02-22T07:12:52.340Z,100.00
2024-02-22T07:15:19.131Z,100.00
2024-02-22T07:17:46.169Z,100.00
2024-02-22T07:20:14.005Z,100.00
2024-02-22T07:22:48.509Z,100.00
2024-02-22T07:25:17.473Z,100.00
2024-02-22T07:27:43.952Z,100.00
2024-02-22T07:30:10.732Z,100.00
2024-02-22T07:32:37.724Z,100.00
2024-02-22T07:35:04.723Z,100.00
2024-02-22T07:37:31.402Z,100.00
2024-02-22T07:39:57.899Z,100.00
2024-02-22T07:42:25.482Z,100.00
2024-02-22T07:44:52.343Z,100.00
2024-02-22T07:47:18.986Z,100.00
2024-02-22T07:49:46.161Z,100.00
2024-02-22T07:52:12.689Z,100.00
2024-02-22T07:54:39.558Z,100.00
2024-02-22T07:57:06.145Z,100.00
2024-02-22T07:59:32.727Z,100.00
2024-02-22T08:01:59.252Z,100.00
2024-02-22T08:04:28.010Z,100.00
2024-02-22T08:06:54.865Z,100.00
2024-02-22T08:09:21.450Z,100.00
2024-02-22T08:11:48.243Z,100.00
2024-02-22T08:14:15.398Z,100.00
2024-02-22T08:16:41.914Z,100.00
2024-02-22T08:19:08.507Z,100.00
2024-02-22T08:21:35.032Z,100.00
2024-02-22T08:24:01.896Z,100.00
2024-02-22T08:26:28.533Z,100.00
2024-02-22T08:28:55.686Z,100.00
2024-02-22T08:31:25.477Z,100.00
2024-02-22T08:33:52.145Z,100.00
2024-02-22T08:36:18.699Z,100.00
2024-02-22T08:38:45.164Z,100.00
2024-02-22T08:41:11.841Z,100.00
2024-02-22T08:43:38.509Z,100.00
2024-02-22T08:46:05.931Z,100.00
2024-02-22T08:48:33.528Z,100.00
2024-02-22T08:51:00.095Z,100.00
2024-02-22T08:53:26.713Z,100.00
2024-02-22T08:55:53.326Z,100.00
2024-02-22T08:58:19.993Z,100.00
2024-02-22T09:00:46.553Z,100.00
2024-02-22T09:03:13.954Z,100.00
2024-02-22T09:05:42.439Z,100.00
2024-02-22T09:08:09.191Z,100.00
2024-02-22T09:10:35.838Z,100.00
2024-02-22T09:13:02.486Z,100.00
2024-02-22T09:15:29.034Z,100.00
2024-02-22T09:17:55.901Z,100.00
2024-02-22T09:20:22.657Z,100.00
2024-02-22T09:22:50.030Z,100.00
2024-02-22T09:25:17.017Z,100.00
2024-02-22T09:27:43.626Z,100.00
2024-02-22T09:30:10.653Z,100.00
2024-02-22T09:32:37.390Z,100.00
2024-02-22T09:35:04.344Z,100.00
2024-02-22T09:37:32.108Z,100.00
2024-02-22T09:39:58.792Z,100.00
2024-02-22T09:42:28.586Z,100.00
2024-02-22T09:44:56.732Z,100.00
2024-02-22T09:47:23.971Z,100.00
2024-02-22T09:49:50.901Z,100.00
2024-02-22T09:52:20.618Z,100.00
2024-02-22T09:54:47.219Z,100.00
2024-02-22T09:57:13.744Z,100.00
2024-02-22T09:59:51.703Z,100.00
2024-02-22T10:02:19.676Z,100.00
2024-02-22T10:04:57.031Z,100.00
2024-02-22T10:07:29.318Z,100.00
2024-02-22T10:09:55.923Z,100.00
2024-02-22T10:12:28.148Z,100.00
2024-02-22T10:14:56.042Z,100.00
2024-02-22T10:17:29.870Z,100.00
2024-02-22T10:20:00.882Z,100.00
2024-02-22T10:22:29.384Z,100.00
2024-02-22T10:25:07.236Z,100.00
2024-02-22T10:27:33.825Z,100.00
2024-02-22T10:30:00.324Z,100.00
2024-02-22T10:32:30.377Z,100.00
2024-02-22T10:34:58.674Z,100.00
2024-02-22T10:37:25.376Z,100.00
2024-02-22T10:39:53.115Z,100.00
2024-02-22T10:42:19.573Z,100.00
2024-02-22T10:44:46.456Z,100.00
2024-02-22T10:47:13.441Z,100.00
2024-02-22T10:49:40.492Z,100.00
2024-02-22T10:52:08.925Z,100.00
2024-02-22T10:54:36.031Z,100.00
2024-02-22T10:57:03.446Z,100.00
2024-02-22T10:59:32.848Z,100.00
2024-02-22T11:02:00.266Z,100.00
2024-02-22T11:04:27.279Z,100.00
2024-02-22T11:06:54.415Z,100.00
2024-02-22T11:09:26.651Z,100.00
2024-02-22T11:11:54.107Z,100.00
2024-02-22T11:14:36.110Z,100.00
2024-02-22T11:17:07.172Z,100.00
2024-02-22T11:19:34.961Z,100.00
2024-02-22T11:22:01.550Z,100.00
2024-02-22T11:24:28.487Z,100.00
2024-02-22T11:26:57.300Z,100.00
2024-02-22T11:29:31.856Z,100.00
2024-02-22T11:32:02.325Z,100.00
2024-02-22T11:34:29.731Z,100.00
2024-02-22T11:36:57.957Z,100.00
2024-02-22T11:39:25.486Z,100.00
2024-02-22T11:41:52.012Z,100.00
2024-02-22T11:44:18.598Z,100.00
2024-02-22T11:46:45.806Z,100.00
2024-02-22T11:49:12.596Z,100.00
2024-02-22T11:51:41.337Z,100.00
2024-02-22T11:54:08.200Z,100.00
2024-02-22T11:56:36.032Z,100.00
2024-02-22T11:59:04.137Z,100.00
2024-02-22T12:01:31.402Z,100.00
2024-02-22T12:03:58.282Z,100.00
2024-02-22T12:06:25.980Z,100.00
2024-02-22T12:08:53.655Z,100.00
2024-02-22T12:11:21.780Z,100.00
2024-02-22T12:13:58.869Z,100.00
2024-02-22T12:16:27.975Z,100.00
2024-02-22T12:18:54.559Z,100.00
2024-02-22T12:21:23.423Z,100.00
2024-02-22T12:23:56.967Z,100.00
2024-02-22T12:26:23.531Z,100.00
2024-02-22T12:28:52.379Z,100.00
2024-02-22T12:31:20.468Z,100.00
2024-02-22T12:33:52.533Z,100.00
2024-02-22T12:36:19.833Z,100.00
2024-02-22T12:38:47.568Z,100.00
2024-02-22T12:41:15.168Z,100.00
2024-02-22T12:43:47.984Z,100.00
2024-02-22T12:46:14.588Z,100.00
2024-02-22T12:48:41.671Z,100.00
2024-02-22T12:51:09.211Z,100.00
2024-02-22T12:53:35.742Z,100.00
2024-02-22T12:56:02.548Z,100.00
2024-02-22T12:58:29.956Z,100.00
2024-02-22T13:00:56.885Z,100.00
2024-02-22T13:03:23.605Z,100.00
2024-02-22T13:05:50.072Z,100.00
2024-02-22T13:08:25.606Z,100.00
2024-02-22T13:10:56.837Z,100.00
2024-02-22T13:13:23.363Z,100.00
2024-02-22T13:15:49.942Z,100.00
2024-02-22T13:18:16.696Z,100.00
2024-02-22T13:20:44.114Z,100.00
2024-02-22T13:23:10.705Z,100.00
2024-02-22T13:25:37.499Z,100.00
2024-02-22T13:28:04.278Z,100.00
2024-02-22T13:30:30.809Z,100.00
2024-02-22T13:32:58.471Z,100.00
2024-02-22T13:35:25.092Z,100.00
2024-02-22T13:37:52.902Z,100.00
2024-02-22T13:40:21.169Z,100.00
2024-02-22T13:42:47.809Z,100.00
2024-02-22T13:45:14.388Z,100.00
2024-02-22T13:47:41.047Z,100.00
2024-02-22T13:50:08.389Z,100.00
2024-02-22T13:52:34.945Z,100.00
2024-02-22T13:55:03.305Z,100.00
2024-02-22T13:57:34.549Z,100.00
2024-02-22T14:00:01.108Z,100.00
2024-02-22T14:02:27.675Z,100.00
2024-02-22T14:04:54.395Z,100.00
2024-02-22T14:07:20.937Z,100.00
2024-02-22T14:09:49.492Z,100.00
2024-02-22T14:12:16.217Z,100.00
2024-02-22T14:14:43.023Z,100.00
2024-02-22T14:17:11.404Z,100.00
2024-02-22T14:19:38.187Z,100.00
2024-02-22T14:22:04.880Z,100.00
2024-02-22T14:24:32.097Z,100.00
2024-02-22T14:27:12.834Z,100.00
2024-02-22T14:29:42.878Z,100.00
2024-02-22T14:32:12.503Z,100.00
2024-02-22T14:34:39.749Z,100.00
2024-02-22T14:37:06.780Z,100.00
2024-02-22T14:39:33.267Z,100.00
2024-02-22T14:41:59.765Z,100.00
2024-02-22T14:44:26.251Z,100.00
2024-02-22T14:46:52.861Z,100.00
2024-02-22T14:49:19.889Z,100.00
2024-02-22T14:51:46.745Z,100.00
2024-02-22T14:54:13.244Z,100.00
2024-02-22T14:56:40.266Z,100.00
2024-02-22T14:59:06.761Z,100.00
2024-02-22T15:01:33.202Z,100.00
2024-02-22T15:03:59.745Z,100.00
2024-02-22T15:06:26.463Z,100.00
2024-02-22T15:08:52.960Z,100.00
2024-02-22T15:11:19.620Z,100.00
2024-02-22T15:13:47.602Z,100.00
2024-02-22T15:16:14.437Z,100.00
2024-02-22T15:18:41.057Z,100.00
2024-02-22T15:21:08.105Z,100.00
2024-02-22T15:23:37.303Z,100.00
2024-02-22T15:26:08.144Z,100.00
2024-02-22T15:28:34.779Z,100.00
2024-02-22T15:31:01.387Z,100.00
2024-02-22T15:33:28.174Z,100.00
2024-02-22T15:35:55.522Z,100.00
2024-02-22T15:38:22.351Z,100.00
2024-02-22T15:40:49.278Z,100.00
2024-02-22T15:43:16.182Z,100.00
2024-02-22T15:45:43.820Z,100.00
2024-02-22T15:48:11.508Z,100.00
2024-02-22T15:50:38.120Z,100.00
2024-02-22T15:53:06.608Z,100.00
2024-02-22T15:55:33.840Z,100.00
2024-02-22T15:58:03.187Z,100.00
2024-02-22T16:00:30.550Z,100.00
2024-02-22T16:02:57.572Z,100.00
2024-02-22T16:05:24.192Z,100.00
2024-02-22T16:07:51.421Z,100.00
2024-02-22T16:10:17.928Z,100.00
2024-02-22T16:12:44.432Z,100.00
2024-02-22T16:15:12.076Z,100.00
2024-02-22T16:17:39.485Z,100.00
2024-02-22T16:20:06.701Z,100.00
2024-02-22T16:22:33.394Z,100.00
2024-02-22T16:24:59.996Z,100.00
2024-02-22T16:27:26.533Z,100.00
2024-02-22T16:29:53.484Z,100.00
2024-02-22T16:32:20.111Z,100.00
2024-02-22T16:34:46.670Z,100.00
2024-02-22T16:37:16.664Z,100.00
2024-02-22T16:39:46.803Z,100.00
2024-02-22T16:42:13.465Z,100.00
2024-02-22T16:44:43.260Z,100.00
2024-02-22T16:47:15.432Z,100.00
2024-02-22T16:49:42.672Z,100.00
2024-02-22T16:52:09.328Z,100.00
2024-02-22T16:54:36.305Z,100.00
2024-02-22T16:57:06.571Z,100.00
2024-02-22T16:59:33.280Z,100.00
2024-02-22T17:02:00.380Z,100.00
2024-02-22T17:04:27.215Z,100.00
2024-02-22T17:06:59.299Z,100.00
2024-02-22T17:09:29.182Z,100.00
2024-02-22T17:11:56.791Z,100.00
2024-02-22T17:14:24.790Z,100.00
2024-02-22T17:16:52.910Z,100.00
2024-02-22T17:19:19.618Z,100.00
2024-02-22T17:21:50.652Z,100.00
2024-02-22T17:24:19.574Z,100.00
2024-02-22T17:26:46.025Z,100.00
2024-02-22T17:29:12.646Z,100.00
2024-02-22T17:31:40.231Z,100.00
2024-02-22T17:34:06.869Z,100.00
2024-02-22T17:36:34.385Z,100.00
2024-02-22T17:39:00.939Z,100.00
2024-02-22T17:41:28.234Z,100.00
2024-02-22T17:43:56.421Z,100.00
2024-02-22T17:46:24.676Z,100.00
2024-02-22T17:48:51.445Z,100.00
2024-02-22T17:51:21.541Z,100.00
2024-02-22T17:53:48.990Z,100.00
2024-02-22T17:56:15.663Z,100.00
2024-02-22T17:58:51.208Z,100.00
2024-02-22T18:01:23.240Z,100.00
2024-02-22T18:03:49.717Z,100.00
2024-02-22T18:06:18.391Z,100.00
2024-02-22T18:08:45.267Z,100.00
2024-02-22T18:11:12.248Z,100.00
2024-02-22T18:13:39.772Z,100.00
2024-02-22T18:16:06.973Z,100.00
2024-02-22T18:18:34.349Z,100.00
2024-02-22T18:21:00.976Z,100.00
2024-02-22T18:23:27.466Z,100.00
2024-02-22T18:25:54.089Z,100.00
2024-02-22T18:28:20.669Z,100.00
2024-02-22T18:30:49.166Z,100.00
2024-02-22T18:33:17.035Z,100.00
2024-02-22T18:35:43.697Z,100.00
2024-02-22T18:38:10.321Z,100.00
2024-02-22T18:40:36.902Z,100.00
2024-02-22T18:43:03.492Z,100.00
2024-02-22T18:45:29.994Z,100.00
2024-02-22T18:47:56.600Z,100.00
2024-02-22T18:50:23.488Z,100.00
2024-02-22T18:52:50.413Z,100.00
2024-02-22T18:55:16.940Z,100.00
2024-02-22T18:57:43.605Z,100.00
2024-02-22T19:00:13.216Z,100.00
2024-02-22T19:02:40.241Z,100.00
2024-02-22T19:05:07.728Z,100.00
2024-02-22T19:07:34.539Z,100.00
2024-02-22T19:10:02.045Z,100.00
2024-02-22T19:12:28.678Z,100.00
2024-02-22T19:14:55.314Z,100.00
2024-02-22T19:17:22.071Z,100.00
2024-02-22T19:19:50.070Z,100.00
2024-02-22T19:22:16.645Z,100.00
2024-02-22T19:24:43.179Z,100.00
2024-02-22T19:27:09.738Z,100.00
2024-02-22T19:29:38.873Z,100.00
2024-02-22T19:32:05.861Z,100.00
2024-02-22T19:34:32.426Z,100.00
2024-02-22T19:36:58.931Z,100.00
2024-02-22T19:39:25.461Z,100.00
2024-02-22T19:41:51.971Z,100.00
2024-02-22T19:44:20.668Z,100.00
2024-02-22T19:46:47.271Z,100.00
2024-02-22T19:49:13.929Z,100.00
2024-02-22T19:51:42.329Z,100.00
2024-02-22T19:54:09.430Z,100.00
2024-02-22T19:56:35.952Z,100.00
2024-02-22T19:59:03.490Z,100.00
2024-02-22T20:01:30.622Z,100.00
2024-02-22T20:04:00.403Z,100.00
2024-02-22T20:06:27.515Z,100.00
2024-02-22T20:08:56.276Z,100.00
2024-02-22T20:11:23.971Z,100.00
2024-02-22T20:13:54.368Z,100.00
2024-02-22T20:16:25.486Z,100.00
2024-02-22T20:18:52.182Z,100.00
2024-02-22T20:21:19.626Z,100.00
2024-02-22T20:23:46.150Z,100.00
2024-02-22T20:26:12.745Z,100.00
2024-02-22T20:28:39.675Z,100.00
2024-02-22T20:31:07.067Z,100.00
2024-02-22T20:33:33.747Z,100.00
2024-02-22T20:36:00.442Z,100.00
2024-02-22T20:38:29.997Z,100.00
2024-02-22T20:40:57.125Z,100.00
2024-02-22T20:43:25.741Z,100.00
2024-02-22T20:45:58.256Z,100.00
2024-02-22T20:48:29.015Z,100.00
2024-02-22T20:50:55.687Z,100.00
2024-02-22T20:53:24.878Z,100.00
2024-02-22T20:55:55.090Z,100.00
2024-02-22T20:58:23.043Z,100.00
2024-02-22T21:00:50.368Z,100.00
2024-02-22T21:03:17.231Z,100.00
2024-02-22T21:05:43.791Z,100.00
2024-02-22T21:08:10.500Z,100.00
2024-02-22T21:10:37.134Z,100.00
2024-02-22T21:13:03.865Z,100.00
2024-02-22T21:15:31.272Z,100.00
2024-02-22T21:17:58.267Z,100.00
2024-02-22T21:20:24.892Z,100.00
2024-02-22T21:22:52.652Z,100.00
2024-02-22T21:25:20.119Z,100.00
2024-02-22T21:27:46.802Z,100.00
2024-02-22T21:30:13.405Z,99.44
2024-02-22T21:32:40.137Z,98.46
2024-02-22T21:35:09.903Z,100.00
2024-02-22T21:37:36.481Z,100.00
2024-02-22T21:40:06.290Z,100.00
2024-02-22T21:42:36.083Z,100.00
2024-02-22T21:45:03.021Z,100.00
2024-02-22T21:47:29.643Z,100.00
2024-02-22T21:49:56.142Z,100.00
2024-02-22T21:52:22.711Z,100.00
2024-02-22T21:54:49.768Z,100.00
2024-02-22T21:57:16.573Z,100.00
2024-02-22T21:59:42.997Z,100.00
2024-02-22T22:02:09.545Z,100.00
2024-02-22T22:04:36.105Z,100.00
2024-02-22T22:07:02.642Z,99.11
2024-02-22T22:09:29.114Z,99.59
2024-02-22T22:11:55.615Z,96.56
2024-02-22T22:14:22.163Z,98.40
2024-02-22T22:16:48.693Z,97.67
2024-02-22T22:19:15.287Z,97.00
2024-02-22T22:21:42.268Z,97.26
2024-02-22T22:24:08.781Z,96.77
2024-02-22T22:26:36.563Z,97.63
2024-02-22T22:29:06.121Z,98.47
2024-02-22T22:31:33.869Z,98.17
2024-02-22T22:34:03.829Z,97.95
2024-02-22T22:36:30.659Z,98.36
2024-02-22T22:38:57.199Z,99.05
2024-02-22T22:41:24.386Z,99.41
2024-02-22T22:43:52.630Z,100.00
2024-02-22T22:46:19.235Z,100.00
2024-02-22T22:48:45.790Z,100.00
2024-02-22T22:51:12.464Z,100.00
2024-02-22T22:53:38.955Z,100.00
2024-02-22T22:56:05.773Z,100.00
2024-02-22T22:58:32.254Z,100.00
2024-02-22T23:00:58.817Z,100.00
2024-02-22T23:03:25.393Z,100.00
2024-02-22T23:05:53.068Z,100.00
2024-02-22T23:08:19.730Z,100.00
2024-02-22T23:10:46.360Z,100.00
2024-02-22T23:13:12.874Z,100.00
2024-02-22T23:15:39.385Z,100.00
2024-02-22T23:18:07.194Z,100.00
2024-02-22T23:20:35.291Z,100.00
2024-02-22T23:23:01.828Z,100.00
2024-02-22T23:25:28.444Z,100.00
2024-02-22T23:27:54.918Z,100.00
2024-02-22T23:30:21.594Z,100.00
2024-02-22T23:32:48.129Z,100.00
2024-02-22T23:35:14.809Z,100.00
2024-02-22T23:37:42.098Z,100.00
2024-02-22T23:40:11.458Z,100.00
2024-02-22T23:42:38.864Z,100.00
2024-02-22T23:45:06.102Z,100.00
2024-02-22T23:47:32.658Z,100.00
2024-02-22T23:49:59.335Z,100.00
2024-02-22T23:52:25.854Z,100.00
2024-02-22T23:54:52.304Z,100.00
2024-02-22T23:57:19.175Z,100.00
2024-02-22T23:59:45.657Z,100.00
